sensor_id;sensor_type;location;lat;lon;timestamp;P1;durP1;ratioP1;P2;durP2;ratioP2
45011;SDS011;63444;48.148;11.542;2023-04-23T00:00:48;3.63;;;2.17;;
45011;SDS011;63444;48.148;11.542;2023-04-23T00:03:16;3.47;;;2.10;;
45011;SDS011;63444;48.148;11.542;2023-04-23T00:05:43;2.73;;;2.13;;
45011;SDS011;63444;48.148;11.542;2023-04-23T00:08:09;2.43;;;2.10;;
45011;SDS011;63444;48.148;11.542;2023-04-23T00:10:35;2.27;;;2.00;;
45011;SDS011;63444;48.148;11.542;2023-04-23T00:13:01;2.13;;;1.80;;
45011;SDS011;63444;48.148;11.542;2023-04-23T00:15:28;3.03;;;2.00;;
45011;SDS011;63444;48.148;11.542;2023-04-23T00:17:54;2.37;;;1.90;;
45011;SDS011;63444;48.148;11.542;2023-04-23T00:20:20;2.60;;;2.00;;
45011;SDS011;63444;48.148;11.542;2023-04-23T00:22:46;3.13;;;2.07;;
45011;SDS011;63444;48.148;11.542;2023-04-23T00:25:12;3.40;;;2.20;;
45011;SDS011;63444;48.148;11.542;2023-04-23T00:27:38;3.00;;;2.17;;
45011;SDS011;63444;48.148;11.542;2023-04-23T00:30:03;2.30;;;2.10;;
45011;SDS011;63444;48.148;11.542;2023-04-23T00:32:30;4.20;;;2.00;;
45011;SDS011;63444;48.148;11.542;2023-04-23T00:34:55;2.27;;;2.03;;
45011;SDS011;63444;48.148;11.542;2023-04-23T00:37:21;2.37;;;2.17;;
45011;SDS011;63444;48.148;11.542;2023-04-23T00:39:47;2.93;;;2.33;;
45011;SDS011;63444;48.148;11.542;2023-04-23T00:42:12;3.37;;;2.30;;
45011;SDS011;63444;48.148;11.542;2023-04-23T00:44:41;3.43;;;2.30;;
45011;SDS011;63444;48.148;11.542;2023-04-23T00:47:07;2.90;;;2.60;;
45011;SDS011;63444;48.148;11.542;2023-04-23T00:49:33;2.73;;;2.20;;
45011;SDS011;63444;48.148;11.542;2023-04-23T00:52:00;2.50;;;2.20;;
45011;SDS011;63444;48.148;11.542;2023-04-23T00:54:26;3.27;;;1.90;;
45011;SDS011;63444;48.148;11.542;2023-04-23T00:56:52;3.63;;;2.10;;
45011;SDS011;63444;48.148;11.542;2023-04-23T00:59:19;2.30;;;2.00;;
45011;SDS011;63444;48.148;11.542;2023-04-23T01:01:45;4.30;;;2.10;;
45011;SDS011;63444;48.148;11.542;2023-04-23T01:04:12;2.30;;;2.10;;
45011;SDS011;63444;48.148;11.542;2023-04-23T01:06:40;4.13;;;2.00;;
45011;SDS011;63444;48.148;11.542;2023-04-23T01:09:06;4.30;;;2.20;;
45011;SDS011;63444;48.148;11.542;2023-04-23T01:11:34;3.03;;;2.20;;
45011;SDS011;63444;48.148;11.542;2023-04-23T01:14:04;4.03;;;2.10;;
45011;SDS011;63444;48.148;11.542;2023-04-23T01:16:30;2.83;;;2.40;;
45011;SDS011;63444;48.148;11.542;2023-04-23T01:18:56;4.23;;;2.30;;
45011;SDS011;63444;48.148;11.542;2023-04-23T01:21:22;2.10;;;1.90;;
45011;SDS011;63444;48.148;11.542;2023-04-23T01:23:48;2.43;;;2.23;;
45011;SDS011;63444;48.148;11.542;2023-04-23T01:26:14;2.47;;;2.20;;
45011;SDS011;63444;48.148;11.542;2023-04-23T01:28:41;2.10;;;1.90;;
45011;SDS011;63444;48.148;11.542;2023-04-23T01:31:07;2.10;;;1.90;;
45011;SDS011;63444;48.148;11.542;2023-04-23T01:33:33;2.73;;;2.27;;
45011;SDS011;63444;48.148;11.542;2023-04-23T01:35:59;2.47;;;2.20;;
45011;SDS011;63444;48.148;11.542;2023-04-23T01:38:29;3.00;;;2.40;;
45011;SDS011;63444;48.148;11.542;2023-04-23T01:40:56;2.30;;;2.10;;
45011;SDS011;63444;48.148;11.542;2023-04-23T01:43:22;2.37;;;2.17;;
45011;SDS011;63444;48.148;11.542;2023-04-23T01:45:49;2.77;;;2.30;;
45011;SDS011;63444;48.148;11.542;2023-04-23T01:48:15;2.17;;;1.97;;
45011;SDS011;63444;48.148;11.542;2023-04-23T01:50:41;2.40;;;2.20;;
45011;SDS011;63444;48.148;11.542;2023-04-23T01:53:07;3.37;;;2.03;;
45011;SDS011;63444;48.148;11.542;2023-04-23T01:55:33;3.43;;;2.10;;
45011;SDS011;63444;48.148;11.542;2023-04-23T01:58:03;3.50;;;2.50;;
45011;SDS011;63444;48.148;11.542;2023-04-23T02:00:29;2.67;;;2.47;;
45011;SDS011;63444;48.148;11.542;2023-04-23T02:02:55;2.13;;;1.90;;
45011;SDS011;63444;48.148;11.542;2023-04-23T02:05:21;3.90;;;2.40;;
45011;SDS011;63444;48.148;11.542;2023-04-23T02:07:47;4.90;;;2.33;;
45011;SDS011;63444;48.148;11.542;2023-04-23T02:10:14;5.07;;;2.37;;
45011;SDS011;63444;48.148;11.542;2023-04-23T02:12:40;3.77;;;2.30;;
45011;SDS011;63444;48.148;11.542;2023-04-23T02:15:07;3.83;;;2.20;;
45011;SDS011;63444;48.148;11.542;2023-04-23T02:17:33;2.57;;;2.37;;
45011;SDS011;63444;48.148;11.542;2023-04-23T02:19:59;4.13;;;2.73;;
45011;SDS011;63444;48.148;11.542;2023-04-23T02:22:25;3.60;;;2.20;;
45011;SDS011;63444;48.148;11.542;2023-04-23T02:24:52;2.23;;;2.03;;
45011;SDS011;63444;48.148;11.542;2023-04-23T02:27:18;2.80;;;2.13;;
45011;SDS011;63444;48.148;11.542;2023-04-23T02:29:44;3.07;;;2.20;;
45011;SDS011;63444;48.148;11.542;2023-04-23T02:32:11;3.10;;;2.27;;
45011;SDS011;63444;48.148;11.542;2023-04-23T02:34:36;3.07;;;2.10;;
45011;SDS011;63444;48.148;11.542;2023-04-23T02:37:02;4.40;;;2.00;;
45011;SDS011;63444;48.148;11.542;2023-04-23T02:39:31;3.23;;;2.30;;
45011;SDS011;63444;48.148;11.542;2023-04-23T02:41:57;3.70;;;2.13;;
45011;SDS011;63444;48.148;11.542;2023-04-23T02:44:23;3.30;;;2.23;;
45011;SDS011;63444;48.148;11.542;2023-04-23T02:46:50;2.30;;;2.10;;
45011;SDS011;63444;48.148;11.542;2023-04-23T02:49:16;3.30;;;2.33;;
45011;SDS011;63444;48.148;11.542;2023-04-23T02:51:41;2.90;;;2.60;;
45011;SDS011;63444;48.148;11.542;2023-04-23T02:54:07;3.97;;;2.37;;
45011;SDS011;63444;48.148;11.542;2023-04-23T02:56:33;3.00;;;2.20;;
45011;SDS011;63444;48.148;11.542;2023-04-23T02:58:58;2.43;;;2.23;;
45011;SDS011;63444;48.148;11.542;2023-04-23T03:01:25;2.50;;;2.30;;
45011;SDS011;63444;48.148;11.542;2023-04-23T03:03:51;2.80;;;2.30;;
45011;SDS011;63444;48.148;11.542;2023-04-23T03:06:17;2.50;;;2.00;;
45011;SDS011;63444;48.148;11.542;2023-04-23T03:08:42;3.53;;;2.13;;
45011;SDS011;63444;48.148;11.542;2023-04-23T03:11:08;5.60;;;2.30;;
45011;SDS011;63444;48.148;11.542;2023-04-23T03:13:34;2.73;;;2.20;;
45011;SDS011;63444;48.148;11.542;2023-04-23T03:15:59;2.97;;;2.13;;
45011;SDS011;63444;48.148;11.542;2023-04-23T03:18:25;2.63;;;2.27;;
45011;SDS011;63444;48.148;11.542;2023-04-23T03:20:50;2.47;;;2.20;;
45011;SDS011;63444;48.148;11.542;2023-04-23T03:23:16;3.40;;;2.10;;
45011;SDS011;63444;48.148;11.542;2023-04-23T03:25:41;3.83;;;2.43;;
45011;SDS011;63444;48.148;11.542;2023-04-23T03:28:07;3.43;;;2.23;;
45011;SDS011;63444;48.148;11.542;2023-04-23T03:30:33;2.20;;;2.00;;
45011;SDS011;63444;48.148;11.542;2023-04-23T03:32:59;2.90;;;2.20;;
45011;SDS011;63444;48.148;11.542;2023-04-23T03:35:26;3.57;;;2.60;;
45011;SDS011;63444;48.148;11.542;2023-04-23T03:37:52;3.63;;;2.23;;
45011;SDS011;63444;48.148;11.542;2023-04-23T03:40:18;3.87;;;2.30;;
45011;SDS011;63444;48.148;11.542;2023-04-23T03:42:44;3.13;;;2.40;;
45011;SDS011;63444;48.148;11.542;2023-04-23T03:45:11;3.30;;;2.17;;
45011;SDS011;63444;48.148;11.542;2023-04-23T03:47:37;5.40;;;2.57;;
45011;SDS011;63444;48.148;11.542;2023-04-23T03:50:03;2.87;;;2.20;;
45011;SDS011;63444;48.148;11.542;2023-04-23T03:52:30;3.33;;;2.27;;
45011;SDS011;63444;48.148;11.542;2023-04-23T03:54:56;2.40;;;2.13;;
45011;SDS011;63444;48.148;11.542;2023-04-23T03:57:22;3.37;;;2.20;;
45011;SDS011;63444;48.148;11.542;2023-04-23T03:59:47;3.13;;;2.20;;
45011;SDS011;63444;48.148;11.542;2023-04-23T04:02:13;2.80;;;2.20;;
45011;SDS011;63444;48.148;11.542;2023-04-23T04:04:38;5.50;;;2.53;;
45011;SDS011;63444;48.148;11.542;2023-04-23T04:07:06;2.73;;;2.17;;
45011;SDS011;63444;48.148;11.542;2023-04-23T04:09:32;4.00;;;2.40;;
45011;SDS011;63444;48.148;11.542;2023-04-23T04:11:58;2.80;;;2.50;;
45011;SDS011;63444;48.148;11.542;2023-04-23T04:14:23;2.87;;;2.40;;
45011;SDS011;63444;48.148;11.542;2023-04-23T04:16:49;4.83;;;2.20;;
45011;SDS011;63444;48.148;11.542;2023-04-23T04:19:15;7.87;;;2.20;;
45011;SDS011;63444;48.148;11.542;2023-04-23T04:21:40;3.10;;;2.23;;
45011;SDS011;63444;48.148;11.542;2023-04-23T04:24:06;2.50;;;2.30;;
45011;SDS011;63444;48.148;11.542;2023-04-23T04:26:31;2.80;;;2.37;;
45011;SDS011;63444;48.148;11.542;2023-04-23T04:28:58;5.67;;;2.47;;
45011;SDS011;63444;48.148;11.542;2023-04-23T04:31:25;3.20;;;2.40;;
45011;SDS011;63444;48.148;11.542;2023-04-23T04:33:52;3.10;;;2.40;;
45011;SDS011;63444;48.148;11.542;2023-04-23T04:36:19;2.50;;;2.30;;
45011;SDS011;63444;48.148;11.542;2023-04-23T04:38:45;2.63;;;2.40;;
45011;SDS011;63444;48.148;11.542;2023-04-23T04:41:11;2.80;;;2.40;;
45011;SDS011;63444;48.148;11.542;2023-04-23T04:43:37;2.90;;;2.50;;
45011;SDS011;63444;48.148;11.542;2023-04-23T04:46:03;2.80;;;2.47;;
45011;SDS011;63444;48.148;11.542;2023-04-23T04:48:29;2.87;;;2.60;;
45011;SDS011;63444;48.148;11.542;2023-04-23T04:50:54;5.17;;;2.60;;
45011;SDS011;63444;48.148;11.542;2023-04-23T04:53:20;2.80;;;2.60;;
45011;SDS011;63444;48.148;11.542;2023-04-23T04:55:46;3.00;;;2.70;;
45011;SDS011;63444;48.148;11.542;2023-04-23T04:58:12;2.97;;;2.60;;
45011;SDS011;63444;48.148;11.542;2023-04-23T05:00:38;3.03;;;2.63;;
45011;SDS011;63444;48.148;11.542;2023-04-23T05:03:04;5.07;;;2.80;;
45011;SDS011;63444;48.148;11.542;2023-04-23T05:05:31;3.33;;;2.70;;
45011;SDS011;63444;48.148;11.542;2023-04-23T05:07:57;3.43;;;2.53;;
45011;SDS011;63444;48.148;11.542;2023-04-23T05:10:26;3.23;;;2.93;;
45011;SDS011;63444;48.148;11.542;2023-04-23T05:12:53;4.70;;;2.73;;
45011;SDS011;63444;48.148;11.542;2023-04-23T05:15:20;3.73;;;2.77;;
45011;SDS011;63444;48.148;11.542;2023-04-23T05:17:45;4.17;;;3.33;;
45011;SDS011;63444;48.148;11.542;2023-04-23T05:20:11;3.83;;;2.80;;
45011;SDS011;63444;48.148;11.542;2023-04-23T05:22:40;2.87;;;2.63;;
45011;SDS011;63444;48.148;11.542;2023-04-23T05:25:06;2.93;;;2.70;;
45011;SDS011;63444;48.148;11.542;2023-04-23T05:27:33;5.67;;;2.83;;
45011;SDS011;63444;48.148;11.542;2023-04-23T05:30:00;3.87;;;3.10;;
45011;SDS011;63444;48.148;11.542;2023-04-23T05:32:27;3.70;;;2.87;;
45011;SDS011;63444;48.148;11.542;2023-04-23T05:34:53;4.40;;;3.03;;
45011;SDS011;63444;48.148;11.542;2023-04-23T05:37:20;5.53;;;3.27;;
45011;SDS011;63444;48.148;11.542;2023-04-23T05:39:45;4.50;;;3.50;;
45011;SDS011;63444;48.148;11.542;2023-04-23T05:42:11;4.10;;;3.20;;
45011;SDS011;63444;48.148;11.542;2023-04-23T05:44:37;3.33;;;3.03;;
45011;SDS011;63444;48.148;11.542;2023-04-23T05:47:02;4.10;;;3.30;;
45011;SDS011;63444;48.148;11.542;2023-04-23T05:49:28;3.63;;;3.13;;
45011;SDS011;63444;48.148;11.542;2023-04-23T05:51:55;5.40;;;3.17;;
45011;SDS011;63444;48.148;11.542;2023-04-23T05:54:22;6.40;;;3.60;;
45011;SDS011;63444;48.148;11.542;2023-04-23T05:56:48;3.60;;;3.30;;
45011;SDS011;63444;48.148;11.542;2023-04-23T05:59:13;5.43;;;3.57;;
45011;SDS011;63444;48.148;11.542;2023-04-23T06:01:39;5.37;;;3.40;;
45011;SDS011;63444;48.148;11.542;2023-04-23T06:04:06;3.50;;;3.07;;
45011;SDS011;63444;48.148;11.542;2023-04-23T06:06:31;4.00;;;3.60;;
45011;SDS011;63444;48.148;11.542;2023-04-23T06:08:57;6.60;;;3.33;;
45011;SDS011;63444;48.148;11.542;2023-04-23T06:11:23;5.07;;;3.90;;
45011;SDS011;63444;48.148;11.542;2023-04-23T06:13:48;7.00;;;3.67;;
45011;SDS011;63444;48.148;11.542;2023-04-23T06:16:14;4.67;;;3.70;;
45011;SDS011;63444;48.148;11.542;2023-04-23T06:18:40;5.00;;;3.73;;
45011;SDS011;63444;48.148;11.542;2023-04-23T06:21:05;4.17;;;3.53;;
45011;SDS011;63444;48.148;11.542;2023-04-23T06:23:31;4.03;;;3.63;;
45011;SDS011;63444;48.148;11.542;2023-04-23T06:25:59;4.13;;;3.40;;
45011;SDS011;63444;48.148;11.542;2023-04-23T06:28:25;4.60;;;3.67;;
45011;SDS011;63444;48.148;11.542;2023-04-23T06:30:51;4.33;;;3.70;;
45011;SDS011;63444;48.148;11.542;2023-04-23T06:33:17;4.83;;;4.10;;
45011;SDS011;63444;48.148;11.542;2023-04-23T06:35:42;4.10;;;3.67;;
45011;SDS011;63444;48.148;11.542;2023-04-23T06:38:08;5.90;;;3.17;;
45011;SDS011;63444;48.148;11.542;2023-04-23T06:40:34;3.47;;;3.17;;
45011;SDS011;63444;48.148;11.542;2023-04-23T06:42:59;3.80;;;3.50;;
45011;SDS011;63444;48.148;11.542;2023-04-23T06:45:29;4.33;;;3.93;;
45011;SDS011;63444;48.148;11.542;2023-04-23T06:47:56;4.07;;;3.50;;
45011;SDS011;63444;48.148;11.542;2023-04-23T06:50:21;3.73;;;3.40;;
45011;SDS011;63444;48.148;11.542;2023-04-23T06:52:47;4.37;;;3.77;;
45011;SDS011;63444;48.148;11.542;2023-04-23T06:55:13;3.83;;;3.30;;
45011;SDS011;63444;48.148;11.542;2023-04-23T06:57:38;4.17;;;3.60;;
45011;SDS011;63444;48.148;11.542;2023-04-23T07:00:04;4.43;;;3.97;;
45011;SDS011;63444;48.148;11.542;2023-04-23T07:02:35;4.63;;;3.73;;
45011;SDS011;63444;48.148;11.542;2023-04-23T07:05:01;3.90;;;3.50;;
45011;SDS011;63444;48.148;11.542;2023-04-23T07:07:26;3.53;;;3.23;;
45011;SDS011;63444;48.148;11.542;2023-04-23T07:09:52;3.60;;;3.30;;
45011;SDS011;63444;48.148;11.542;2023-04-23T07:12:18;3.73;;;3.30;;
45011;SDS011;63444;48.148;11.542;2023-04-23T07:14:43;4.23;;;3.40;;
45011;SDS011;63444;48.148;11.542;2023-04-23T07:17:09;4.93;;;3.90;;
45011;SDS011;63444;48.148;11.542;2023-04-23T07:19:35;3.33;;;3.07;;
45011;SDS011;63444;48.148;11.542;2023-04-23T07:22:01;4.70;;;3.23;;
45011;SDS011;63444;48.148;11.542;2023-04-23T07:24:27;3.57;;;3.20;;
45011;SDS011;63444;48.148;11.542;2023-04-23T07:26:53;3.50;;;3.20;;
45011;SDS011;63444;48.148;11.542;2023-04-23T07:29:19;3.77;;;3.20;;
45011;SDS011;63444;48.148;11.542;2023-04-23T07:31:45;3.40;;;3.10;;
45011;SDS011;63444;48.148;11.542;2023-04-23T07:34:12;3.77;;;3.37;;
45011;SDS011;63444;48.148;11.542;2023-04-23T07:36:37;3.40;;;3.10;;
45011;SDS011;63444;48.148;11.542;2023-04-23T07:39:03;3.90;;;3.10;;
45011;SDS011;63444;48.148;11.542;2023-04-23T07:41:29;3.73;;;3.40;;
45011;SDS011;63444;48.148;11.542;2023-04-23T07:43:55;3.80;;;3.30;;
45011;SDS011;63444;48.148;11.542;2023-04-23T07:46:21;4.47;;;3.70;;
45011;SDS011;63444;48.148;11.542;2023-04-23T07:48:50;3.70;;;3.40;;
45011;SDS011;63444;48.148;11.542;2023-04-23T07:51:22;3.33;;;3.03;;
45011;SDS011;63444;48.148;11.542;2023-04-23T07:53:51;3.57;;;3.03;;
45011;SDS011;63444;48.148;11.542;2023-04-23T07:56:20;3.73;;;3.30;;
45011;SDS011;63444;48.148;11.542;2023-04-23T07:58:46;6.00;;;3.00;;
45011;SDS011;63444;48.148;11.542;2023-04-23T08:01:12;4.23;;;3.37;;
45011;SDS011;63444;48.148;11.542;2023-04-23T08:03:38;4.30;;;3.23;;
45011;SDS011;63444;48.148;11.542;2023-04-23T08:06:04;4.00;;;3.10;;
45011;SDS011;63444;48.148;11.542;2023-04-23T08:08:30;4.03;;;3.37;;
45011;SDS011;63444;48.148;11.542;2023-04-23T08:10:56;3.50;;;3.20;;
45011;SDS011;63444;48.148;11.542;2023-04-23T08:13:22;3.30;;;3.00;;
45011;SDS011;63444;48.148;11.542;2023-04-23T08:15:47;4.67;;;2.83;;
45011;SDS011;63444;48.148;11.542;2023-04-23T08:18:13;3.73;;;3.07;;
45011;SDS011;63444;48.148;11.542;2023-04-23T08:20:39;4.90;;;3.20;;
45011;SDS011;63444;48.148;11.542;2023-04-23T08:23:05;3.20;;;2.90;;
45011;SDS011;63444;48.148;11.542;2023-04-23T08:25:31;4.67;;;3.20;;
45011;SDS011;63444;48.148;11.542;2023-04-23T08:27:57;4.03;;;3.00;;
45011;SDS011;63444;48.148;11.542;2023-04-23T08:30:23;3.37;;;3.07;;
45011;SDS011;63444;48.148;11.542;2023-04-23T08:32:49;2.93;;;2.70;;
45011;SDS011;63444;48.148;11.542;2023-04-23T08:35:17;3.70;;;2.57;;
45011;SDS011;63444;48.148;11.542;2023-04-23T08:37:43;3.03;;;2.63;;
45011;SDS011;63444;48.148;11.542;2023-04-23T08:40:10;2.90;;;2.60;;
45011;SDS011;63444;48.148;11.542;2023-04-23T08:45:20;4.53;;;2.70;;
45011;SDS011;63444;48.148;11.542;2023-04-23T08:47:46;2.50;;;2.30;;
45011;SDS011;63444;48.148;11.542;2023-04-23T08:50:16;2.60;;;2.40;;
45011;SDS011;63444;48.148;11.542;2023-04-23T08:52:52;2.93;;;2.60;;
45011;SDS011;63444;48.148;11.542;2023-04-23T08:55:18;3.27;;;2.57;;
45011;SDS011;63444;48.148;11.542;2023-04-23T08:57:45;3.23;;;2.40;;
45011;SDS011;63444;48.148;11.542;2023-04-23T09:00:12;3.00;;;2.70;;
45011;SDS011;63444;48.148;11.542;2023-04-23T09:02:40;2.93;;;2.63;;
45011;SDS011;63444;48.148;11.542;2023-04-23T09:05:07;2.40;;;2.20;;
45011;SDS011;63444;48.148;11.542;2023-04-23T09:07:33;2.40;;;2.20;;
45011;SDS011;63444;48.148;11.542;2023-04-23T09:10:00;2.40;;;2.20;;
45011;SDS011;63444;48.148;11.542;2023-04-23T09:12:27;2.97;;;2.53;;
45011;SDS011;63444;48.148;11.542;2023-04-23T09:14:52;2.70;;;2.30;;
45011;SDS011;63444;48.148;11.542;2023-04-23T09:17:18;2.40;;;2.20;;
45011;SDS011;63444;48.148;11.542;2023-04-23T09:19:46;4.00;;;2.53;;
45011;SDS011;63444;48.148;11.542;2023-04-23T09:22:12;2.87;;;2.40;;
45011;SDS011;63444;48.148;11.542;2023-04-23T09:24:42;3.33;;;2.67;;
45011;SDS011;63444;48.148;11.542;2023-04-23T09:27:08;3.50;;;2.53;;
45011;SDS011;63444;48.148;11.542;2023-04-23T09:29:34;3.70;;;2.50;;
45011;SDS011;63444;48.148;11.542;2023-04-23T09:32:07;3.07;;;2.63;;
45011;SDS011;63444;48.148;11.542;2023-04-23T09:34:34;2.50;;;2.27;;
45011;SDS011;63444;48.148;11.542;2023-04-23T09:37:01;2.30;;;2.07;;
45011;SDS011;63444;48.148;11.542;2023-04-23T09:39:29;2.80;;;2.33;;
45011;SDS011;63444;48.148;11.542;2023-04-23T09:42:01;3.47;;;2.63;;
45011;SDS011;63444;48.148;11.542;2023-04-23T09:44:30;2.50;;;2.30;;
45011;SDS011;63444;48.148;11.542;2023-04-23T09:47:04;2.20;;;2.00;;
45011;SDS011;63444;48.148;11.542;2023-04-23T09:49:43;2.53;;;2.33;;
45011;SDS011;63444;48.148;11.542;2023-04-23T09:52:10;3.03;;;2.50;;
45011;SDS011;63444;48.148;11.542;2023-04-23T09:54:36;2.93;;;2.67;;
45011;SDS011;63444;48.148;11.542;2023-04-23T09:57:03;4.03;;;2.50;;
45011;SDS011;63444;48.148;11.542;2023-04-23T09:59:33;2.63;;;2.43;;
45011;SDS011;63444;48.148;11.542;2023-04-23T10:02:00;3.80;;;2.43;;
45011;SDS011;63444;48.148;11.542;2023-04-23T10:04:28;2.60;;;2.40;;
45011;SDS011;63444;48.148;11.542;2023-04-23T10:06:54;2.33;;;2.10;;
45011;SDS011;63444;48.148;11.542;2023-04-23T10:09:21;3.03;;;2.10;;
45011;SDS011;63444;48.148;11.542;2023-04-23T10:11:52;5.23;;;2.40;;
45011;SDS011;63444;48.148;11.542;2023-04-23T10:14:20;2.47;;;2.00;;
45011;SDS011;63444;48.148;11.542;2023-04-23T10:16:46;3.37;;;2.17;;
45011;SDS011;63444;48.148;11.542;2023-04-23T10:19:16;2.03;;;1.80;;
45011;SDS011;63444;48.148;11.542;2023-04-23T10:21:45;3.63;;;2.40;;
45011;SDS011;63444;48.148;11.542;2023-04-23T10:24:13;2.60;;;2.20;;
45011;SDS011;63444;48.148;11.542;2023-04-23T10:26:44;2.20;;;2.00;;
45011;SDS011;63444;48.148;11.542;2023-04-23T10:29:12;2.63;;;2.00;;
45011;SDS011;63444;48.148;11.542;2023-04-23T10:31:42;2.57;;;2.00;;
45011;SDS011;63444;48.148;11.542;2023-04-23T10:34:10;2.47;;;2.27;;
45011;SDS011;63444;48.148;11.542;2023-04-23T10:36:36;2.97;;;2.17;;
45011;SDS011;63444;48.148;11.542;2023-04-23T10:39:02;2.50;;;2.10;;
45011;SDS011;63444;48.148;11.542;2023-04-23T10:41:34;2.67;;;2.10;;
45011;SDS011;63444;48.148;11.542;2023-04-23T10:44:04;3.23;;;1.87;;
45011;SDS011;63444;48.148;11.542;2023-04-23T10:46:31;2.63;;;2.00;;
45011;SDS011;63444;48.148;11.542;2023-04-23T10:49:10;2.50;;;1.90;;
45011;SDS011;63444;48.148;11.542;2023-04-23T10:51:41;2.30;;;2.10;;
45011;SDS011;63444;48.148;11.542;2023-04-23T10:54:13;2.50;;;2.00;;
45011;SDS011;63444;48.148;11.542;2023-04-23T10:56:40;1.77;;;1.67;;
45011;SDS011;63444;48.148;11.542;2023-04-23T10:59:07;2.70;;;2.00;;
45011;SDS011;63444;48.148;11.542;2023-04-23T11:01:46;4.23;;;1.90;;
45011;SDS011;63444;48.148;11.542;2023-04-23T11:04:26;2.27;;;2.07;;
45011;SDS011;63444;48.148;11.542;2023-04-23T11:06:54;1.90;;;1.70;;
45011;SDS011;63444;48.148;11.542;2023-04-23T11:09:28;2.43;;;2.03;;
45011;SDS011;63444;48.148;11.542;2023-04-23T11:14:52;2.17;;;1.80;;
45011;SDS011;63444;48.148;11.542;2023-04-23T11:17:23;2.17;;;1.70;;
45011;SDS011;63444;48.148;11.542;2023-04-23T11:20:08;1.75;;;1.65;;
45011;SDS011;63444;48.148;11.542;2023-04-23T11:22:36;3.20;;;1.90;;
45011;SDS011;63444;48.148;11.542;2023-04-23T11:25:23;1.85;;;1.75;;
45011;SDS011;63444;48.148;11.542;2023-04-23T11:27:52;3.17;;;1.70;;
45011;SDS011;63444;48.148;11.542;2023-04-23T11:30:20;1.55;;;1.45;;
45011;SDS011;63444;48.148;11.542;2023-04-23T11:32:48;2.80;;;2.10;;
45011;SDS011;63444;48.148;11.542;2023-04-23T11:35:16;3.55;;;3.15;;
45011;SDS011;63444;48.148;11.542;2023-04-23T11:37:43;2.28;;;2.00;;
45011;SDS011;63444;48.148;11.542;2023-04-23T11:40:11;2.00;;;1.80;;
45011;SDS011;63444;48.148;11.542;2023-04-23T11:45:27;2.05;;;1.85;;
45011;SDS011;63444;48.148;11.542;2023-04-23T11:47:54;1.90;;;1.70;;
45011;SDS011;63444;48.148;11.542;2023-04-23T11:50:22;1.80;;;1.70;;
45011;SDS011;63444;48.148;11.542;2023-04-23T11:52:56;2.65;;;1.83;;
45011;SDS011;63444;48.148;11.542;2023-04-23T11:55:31;1.90;;;1.67;;
45011;SDS011;63444;48.148;11.542;2023-04-23T11:57:57;1.70;;;1.60;;
45011;SDS011;63444;48.148;11.542;2023-04-23T12:00:23;1.73;;;1.63;;
45011;SDS011;63444;48.148;11.542;2023-04-23T12:05:27;4.63;;;1.98;;
45011;SDS011;63444;48.148;11.542;2023-04-23T12:07:53;3.55;;;2.00;;
45011;SDS011;63444;48.148;11.542;2023-04-23T12:10:22;1.88;;;1.70;;
45011;SDS011;63444;48.148;11.542;2023-04-23T12:12:51;4.15;;;2.30;;
45011;SDS011;63444;48.148;11.542;2023-04-23T12:15:17;2.58;;;1.90;;
45011;SDS011;63444;48.148;11.542;2023-04-23T12:17:49;3.17;;;2.10;;
45011;SDS011;63444;48.148;11.542;2023-04-23T12:20:19;2.13;;;1.90;;
45011;SDS011;63444;48.148;11.542;2023-04-23T12:22:46;4.38;;;2.20;;
45011;SDS011;63444;48.148;11.542;2023-04-23T12:25:12;2.60;;;2.20;;
45011;SDS011;63444;48.148;11.542;2023-04-23T12:27:38;2.90;;;1.83;;
45011;SDS011;63444;48.148;11.542;2023-04-23T12:30:05;2.10;;;1.90;;
45011;SDS011;63444;48.148;11.542;2023-04-23T12:32:32;6.45;;;2.60;;
45011;SDS011;63444;48.148;11.542;2023-04-23T12:34:58;5.03;;;2.75;;
45011;SDS011;63444;48.148;11.542;2023-04-23T12:37:24;3.53;;;2.00;;
45011;SDS011;63444;48.148;11.542;2023-04-23T12:39:51;2.20;;;2.00;;
45011;SDS011;63444;48.148;11.542;2023-04-23T12:42:17;2.03;;;1.80;;
45011;SDS011;63444;48.148;11.542;2023-04-23T12:44:42;3.47;;;1.90;;
45011;SDS011;63444;48.148;11.542;2023-04-23T12:47:08;2.10;;;1.90;;
45011;SDS011;63444;48.148;11.542;2023-04-23T12:49:39;6.55;;;1.90;;
45011;SDS011;63444;48.148;11.542;2023-04-23T12:52:06;1.83;;;1.73;;
45011;SDS011;63444;48.148;11.542;2023-04-23T12:54:33;7.45;;;2.30;;
45011;SDS011;63444;48.148;11.542;2023-04-23T12:57:03;6.07;;;2.20;;
45011;SDS011;63444;48.148;11.542;2023-04-23T12:59:29;4.78;;;2.20;;
45011;SDS011;63444;48.148;11.542;2023-04-23T13:01:56;6.15;;;2.13;;
45011;SDS011;63444;48.148;11.542;2023-04-23T13:04:25;5.20;;;2.15;;
45011;SDS011;63444;48.148;11.542;2023-04-23T13:06:51;2.13;;;1.80;;
45011;SDS011;63444;48.148;11.542;2023-04-23T13:09:18;4.22;;;1.48;;
45011;SDS011;63444;48.148;11.542;2023-04-23T13:11:45;3.38;;;1.85;;
45011;SDS011;63444;48.148;11.542;2023-04-23T13:14:13;4.40;;;2.10;;
45011;SDS011;63444;48.148;11.542;2023-04-23T13:16:40;2.90;;;1.90;;
45011;SDS011;63444;48.148;11.542;2023-04-23T13:19:06;1.75;;;1.65;;
45011;SDS011;63444;48.148;11.542;2023-04-23T13:21:32;1.70;;;1.60;;
45011;SDS011;63444;48.148;11.542;2023-04-23T13:23:57;2.15;;;1.95;;
45011;SDS011;63444;48.148;11.542;2023-04-23T13:26:23;3.83;;;1.73;;
45011;SDS011;63444;48.148;11.542;2023-04-23T13:28:49;2.35;;;1.98;;
45011;SDS011;63444;48.148;11.542;2023-04-23T13:31:14;4.18;;;2.10;;
45011;SDS011;63444;48.148;11.542;2023-04-23T13:33:40;2.35;;;1.80;;
45011;SDS011;63444;48.148;11.542;2023-04-23T13:36:06;2.55;;;1.60;;
45011;SDS011;63444;48.148;11.542;2023-04-23T13:38:34;2.25;;;1.70;;
45011;SDS011;63444;48.148;11.542;2023-04-23T13:41:00;2.65;;;1.95;;
45011;SDS011;63444;48.148;11.542;2023-04-23T13:43:25;1.85;;;1.75;;
45011;SDS011;63444;48.148;11.542;2023-04-23T13:45:52;2.47;;;1.83;;
45011;SDS011;63444;48.148;11.542;2023-04-23T13:48:18;2.97;;;1.98;;
45011;SDS011;63444;48.148;11.542;2023-04-23T13:50:44;2.95;;;1.70;;
45011;SDS011;63444;48.148;11.542;2023-04-23T13:53:10;2.70;;;2.05;;
45011;SDS011;63444;48.148;11.542;2023-04-23T13:55:36;3.08;;;2.78;;
45011;SDS011;63444;48.148;11.542;2023-04-23T13:58:03;1.90;;;1.80;;
45011;SDS011;63444;48.148;11.542;2023-04-23T14:00:30;2.83;;;2.63;;
45011;SDS011;63444;48.148;11.542;2023-04-23T14:02:55;3.33;;;2.40;;
45011;SDS011;63444;48.148;11.542;2023-04-23T14:05:21;1.90;;;1.80;;
45011;SDS011;63444;48.148;11.542;2023-04-23T14:07:47;1.88;;;1.67;;
45011;SDS011;63444;48.148;11.542;2023-04-23T14:10:12;4.05;;;2.38;;
45011;SDS011;63444;48.148;11.542;2023-04-23T14:12:39;2.13;;;1.98;;
45011;SDS011;63444;48.148;11.542;2023-04-23T14:15:05;4.05;;;2.10;;
45011;SDS011;63444;48.148;11.542;2023-04-23T14:17:32;1.60;;;1.50;;
45011;SDS011;63444;48.148;11.542;2023-04-23T14:19:58;3.65;;;1.95;;
45011;SDS011;63444;48.148;11.542;2023-04-23T14:22:23;2.28;;;1.88;;
45011;SDS011;63444;48.148;11.542;2023-04-23T14:24:49;2.30;;;2.10;;
45011;SDS011;63444;48.148;11.542;2023-04-23T14:27:20;3.33;;;2.28;;
45011;SDS011;63444;48.148;11.542;2023-04-23T14:29:50;4.65;;;2.10;;
45011;SDS011;63444;48.148;11.542;2023-04-23T14:32:21;3.10;;;2.40;;
45011;SDS011;63444;48.148;11.542;2023-04-23T14:34:46;3.40;;;2.95;;
45011;SDS011;63444;48.148;11.542;2023-04-23T14:37:12;2.55;;;2.28;;
45011;SDS011;63444;48.148;11.542;2023-04-23T14:39:39;3.03;;;2.17;;
45011;SDS011;63444;48.148;11.542;2023-04-23T14:42:05;3.75;;;2.10;;